Aeroporto :
LOGIN :

Iscrizione | Disclaimer

   EN    FR    IT 

 










Sommario :    VFR   VFR Marginale   IFR   IFR Intensivo   IFR Molto Intensivo
Visibilità : 
Base nubi : 
>= 8 km
>= 3000ft
5 / 8 km
1000 / 3000 ft
1500m / 5 km
500 / 1000 ft
800 / 1500m
200 / 500 ft
< 800m
< 200 ft
Simboli :   Temporali  Nebbia  Neve Forte  Precipitazioni Forti  Vento > 20 kt
SIGMETs :   Varie  Temporali  Ghiacco  Turbolenza  Onda orograficha  Ceneri Vulcaniche







- Altitudine del aeroporto : 1649 ft
- Codice IATA : HHN


EDFH - Frankfurt-Hahn Rhineland-Palatinate

ULTIMO METAR :
  • 240750Z 21005KT 160V270 CAVOK 16/09 Q1003

METARs OBSOLETI :
  • 240720Z 15005KT CAVOK 14/08 Q1002
  • 240650Z 14008KT CAVOK 13/08 Q1002
  • 240620Z 14009KT CAVOK 13/08 Q1002
  • 240550Z 14007KT CAVOK 12/07 Q1001
  • 240520Z 14009KT CAVOK 12/07 Q1001

TAF TAF EDFH
Valido dal 24 a 06 ore il 25 a 06 ore UTC


240500Z 2406/2506 19005KT CAVOK
TEMPO 2406/2409 SHRA BKN060CB
BECMG 2408/2410 23010KT
TEMPO 2414/2416 24025G45KT 1400 TSRAGR BKN020CB
TEMPO 2416/2418 24015G25KT SHRA BKN040CB
BECMG 2418/2420 16009KT
Nessun NOTAM noto per questo aeroporto.



MetMap, La meteo Aeronautica in un colpo d'occhio ! - Copyright ORBIFLY Dicembre 2007 - Disclaimer

ORBIFLY MET'MAP TEAM :

Programmazione e sviluppo : Alexandra Zaïnal
Concezione e sviluppo : Baudouin d'Aumeries
Co-Programmazione e sviluppo : Marc-Olivier Méhu
Supporto tecnico e logistico : Manuel Goepfert
Aiuto per la traduzione : Arnaldo La Scala

Contatto : metmap@orbifly.com




FONTI E CREDITI :

   NOAA